createdAt,value
2023-03-04T00:00:12.114Z,-1.07
2023-03-04T00:02:39.774Z,-1.07
2023-03-04T00:05:07.287Z,-1.04
2023-03-04T00:07:34.375Z,-1.04
2023-03-04T00:10:01.541Z,-1.04
2023-03-04T00:12:28.692Z,-1.02
2023-03-04T00:15:02.090Z,-1.01
2023-03-04T00:17:31.531Z,-1.01
2023-03-04T00:19:58.725Z,-1.01
2023-03-04T00:22:31.446Z,-1.01
2023-03-04T00:24:58.576Z,-1.01
2023-03-04T00:27:27.634Z,-1.01
2023-03-04T00:29:56.403Z,-0.99
2023-03-04T00:32:23.809Z,-0.99
2023-03-04T00:34:51.290Z,-0.98
2023-03-04T00:37:18.937Z,-0.98
2023-03-04T00:39:46.196Z,-0.98
2023-03-04T00:42:13.346Z,-0.97
2023-03-04T00:44:40.607Z,-0.97
2023-03-04T00:47:08.225Z,-0.96
2023-03-04T00:49:35.316Z,-0.96
2023-03-04T00:52:11.517Z,-0.96
2023-03-04T00:54:38.586Z,-0.94
2023-03-04T00:57:08.657Z,-0.92
2023-03-04T00:59:35.816Z,-0.93
2023-03-04T01:02:03.256Z,-0.91
2023-03-04T01:04:31.129Z,-0.92
2023-03-04T01:07:00.273Z,-0.92
2023-03-04T01:09:29.764Z,-0.91
2023-03-04T01:11:57.480Z,-0.90
2023-03-04T01:14:24.683Z,-0.94
2023-03-04T01:16:52.307Z,-0.96
2023-03-04T01:19:19.709Z,-0.96
2023-03-04T01:21:47.181Z,-0.98
2023-03-04T01:24:16.146Z,-0.97
2023-03-04T01:26:43.635Z,-0.96
2023-03-04T01:29:10.996Z,-0.97
2023-03-04T01:31:38.381Z,-0.99
2023-03-04T01:34:06.075Z,-1.01
2023-03-04T01:36:33.378Z,-0.98
2023-03-04T01:39:00.966Z,-0.99
2023-03-04T01:41:28.724Z,-1.00
2023-03-04T01:43:57.506Z,-0.97
2023-03-04T01:46:24.976Z,-0.97
2023-03-04T01:48:52.934Z,-0.96
2023-03-04T01:51:21.331Z,-0.97
2023-03-04T01:53:52.097Z,-0.97
2023-03-04T01:56:24.240Z,-0.99
2023-03-04T01:59:12.622Z,-0.99
2023-03-04T02:01:43.238Z,-0.99
2023-03-04T02:04:13.405Z,-0.98
2023-03-04T02:06:41.805Z,-0.98
2023-03-04T02:09:10.871Z,-0.96
2023-03-04T02:11:39.089Z,-0.96
2023-03-04T02:14:07.520Z,-0.93
2023-03-04T02:16:35.049Z,-0.92
2023-03-04T02:19:02.854Z,-0.91
2023-03-04T02:21:32.081Z,-0.91
2023-03-04T02:24:15.926Z,-0.93
2023-03-04T02:26:46.938Z,-0.92
2023-03-04T02:29:16.714Z,-0.90
2023-03-04T02:31:50.106Z,-0.91
2023-03-04T02:34:27.881Z,-0.92
2023-03-04T02:36:57.125Z,-0.90
2023-03-04T02:39:39.696Z,-0.91
2023-03-04T02:42:08.061Z,-0.92
2023-03-04T02:44:39.069Z,-0.91
2023-03-04T02:47:11.030Z,-0.91
2023-03-04T02:49:40.336Z,-0.90
2023-03-04T02:52:20.792Z,-0.93
2023-03-04T02:54:48.471Z,-0.91
2023-03-04T02:57:17.004Z,-0.90
2023-03-04T02:59:48.604Z,-0.89
2023-03-04T03:02:20.340Z,-0.90
2023-03-04T03:04:47.988Z,-0.91
2023-03-04T03:07:18.693Z,-0.89
2023-03-04T03:09:46.410Z,-0.93
2023-03-04T03:12:13.719Z,-0.93
2023-03-04T03:14:41.057Z,-0.93
2023-03-04T03:17:11.142Z,-0.93
2023-03-04T03:19:38.486Z,-0.93
2023-03-04T03:22:07.916Z,-0.92
2023-03-04T03:24:35.768Z,-0.93
2023-03-04T03:27:03.326Z,-0.92
2023-03-04T03:29:31.867Z,-0.94
2023-03-04T03:31:59.656Z,-0.91
2023-03-04T03:34:26.950Z,-0.94
2023-03-04T03:36:55.028Z,-0.97
2023-03-04T03:39:22.556Z,-0.97
2023-03-04T03:41:50.208Z,-0.98
2023-03-04T03:44:17.748Z,-0.99
2023-03-04T03:46:46.944Z,-0.99
2023-03-04T03:49:14.508Z,-1.00
2023-03-04T03:51:41.783Z,-0.98
2023-03-04T03:54:09.625Z,-0.99
2023-03-04T03:56:36.863Z,-0.98
2023-03-04T03:59:04.563Z,-0.99
2023-03-04T04:01:33.630Z,-0.99
2023-03-04T04:04:01.358Z,-0.95
2023-03-04T04:06:28.780Z,-0.95
2023-03-04T04:08:56.330Z,-0.94
2023-03-04T04:11:23.954Z,-0.94
2023-03-04T04:13:51.297Z,-0.93
2023-03-04T04:16:18.672Z,-0.91
2023-03-04T04:18:46.199Z,-0.87
2023-03-04T04:21:14.423Z,-0.87
2023-03-04T04:23:41.878Z,-0.83
2023-03-04T04:26:09.339Z,-0.78
2023-03-04T04:28:36.684Z,-0.74
2023-03-04T04:31:08.676Z,-0.73
2023-03-04T04:33:36.930Z,-0.75
2023-03-04T04:36:05.238Z,-0.73
2023-03-04T04:38:32.712Z,-0.73
2023-03-04T04:41:00.404Z,-0.71
2023-03-04T04:43:27.951Z,-0.72
2023-03-04T04:45:55.644Z,-0.71
2023-03-04T04:48:23.057Z,-0.73
2023-03-04T04:50:55.527Z,-0.72
2023-03-04T04:53:23.032Z,-0.71
2023-03-04T04:55:50.435Z,-0.69
2023-03-04T04:58:17.869Z,-0.68
2023-03-04T05:00:45.686Z,-0.68
2023-03-04T05:03:13.069Z,-0.68
2023-03-04T05:05:40.483Z,-0.65
2023-03-04T05:08:07.890Z,-0.66
2023-03-04T05:10:35.352Z,-0.64
2023-03-04T05:13:02.686Z,-0.64
2023-03-04T05:15:30.154Z,-0.63
2023-03-04T05:17:57.741Z,-0.63
2023-03-04T05:20:25.817Z,-0.63
2023-03-04T05:22:53.536Z,-0.61
2023-03-04T05:25:20.947Z,-0.62
2023-03-04T05:27:48.288Z,-0.62
2023-03-04T05:30:22.324Z,-0.60
2023-03-04T05:32:52.962Z,-0.59
2023-03-04T05:35:20.396Z,-0.61
2023-03-04T05:37:47.758Z,-0.59
2023-03-04T05:40:15.291Z,-0.60
2023-03-04T05:42:42.643Z,-0.58
2023-03-04T05:45:10.344Z,-0.58
2023-03-04T05:47:37.700Z,-0.58
2023-03-04T05:50:05.469Z,-0.55
2023-03-04T05:52:33.393Z,-0.55
2023-03-04T05:55:01.352Z,-0.54
2023-03-04T05:57:30.370Z,-0.53
2023-03-04T05:59:59.496Z,-0.50
2023-03-04T06:02:26.997Z,-0.47
2023-03-04T06:04:54.647Z,-0.46
2023-03-04T06:07:22.141Z,-0.45
2023-03-04T06:09:49.776Z,-0.45
2023-03-04T06:12:17.110Z,-0.44
2023-03-04T06:14:44.544Z,-0.41
2023-03-04T06:17:12.246Z,-0.40
2023-03-04T06:19:41.842Z,-0.35
2023-03-04T06:22:10.233Z,-0.34
2023-03-04T06:24:38.402Z,-0.33
2023-03-04T06:27:06.165Z,-0.32
2023-03-04T06:29:33.544Z,-0.29
2023-03-04T06:32:01.023Z,-0.25
2023-03-04T06:34:29.970Z,-0.26
2023-03-04T06:36:57.537Z,-0.23
2023-03-04T06:39:24.985Z,-0.22
2023-03-04T06:41:52.407Z,-0.19
2023-03-04T06:44:19.859Z,-0.18
2023-03-04T06:46:47.483Z,-0.16
2023-03-04T06:49:15.101Z,-0.16
2023-03-04T06:51:42.472Z,-0.13
2023-03-04T06:54:10.098Z,-0.12
2023-03-04T06:56:37.677Z,-0.13
2023-03-04T06:59:05.290Z,-0.13
2023-03-04T07:01:32.825Z,-0.13
2023-03-04T07:04:00.392Z,-0.11
2023-03-04T07:06:29.208Z,-0.10
2023-03-04T07:08:58.359Z,-0.11
2023-03-04T07:11:26.132Z,-0.10
2023-03-04T07:13:53.867Z,-0.10
2023-03-04T07:16:23.466Z,-0.08
2023-03-04T07:18:51.179Z,-0.07
2023-03-04T07:21:18.927Z,-0.06
2023-03-04T07:23:47.673Z,-0.05
2023-03-04T07:26:15.483Z,-0.04
2023-03-04T07:28:43.524Z,0.00
2023-03-04T07:31:24.373Z,0.01
2023-03-04T07:33:51.908Z,0.04
2023-03-04T07:36:20.225Z,0.06
2023-03-04T07:38:49.177Z,0.07
2023-03-04T07:41:18.315Z,0.08
2023-03-04T07:43:45.708Z,0.09
2023-03-04T07:46:13.550Z,0.11
2023-03-04T07:48:41.276Z,0.14
2023-03-04T07:51:11.725Z,0.14
2023-03-04T07:53:41.288Z,0.19
2023-03-04T07:56:12.564Z,0.21
2023-03-04T07:58:40.053Z,0.21
2023-03-04T08:01:23.825Z,0.26
2023-03-04T08:03:51.483Z,0.33
2023-03-04T08:06:20.999Z,0.40
2023-03-04T08:08:49.315Z,0.46
2023-03-04T08:11:22.109Z,0.53
2023-03-04T08:13:50.920Z,0.59
2023-03-04T08:16:19.724Z,0.57
2023-03-04T08:18:50.284Z,0.57
2023-03-04T08:21:20.021Z,0.61
2023-03-04T08:23:48.621Z,0.56
2023-03-04T08:26:20.482Z,0.60
2023-03-04T08:28:48.580Z,0.65
2023-03-04T08:31:18.422Z,0.63
2023-03-04T08:33:47.077Z,0.67
2023-03-04T08:36:16.136Z,0.66
2023-03-04T08:38:43.898Z,0.64
2023-03-04T08:41:11.759Z,0.65
2023-03-04T08:43:39.979Z,0.63
2023-03-04T08:46:07.991Z,0.63
2023-03-04T08:48:37.832Z,0.65
2023-03-04T08:51:15.231Z,0.63
2023-03-04T08:53:43.758Z,0.73
2023-03-04T08:56:11.769Z,0.73
2023-03-04T08:58:39.534Z,0.80
2023-03-04T09:01:13.083Z,0.77
2023-03-04T09:03:41.529Z,0.73
2023-03-04T09:06:10.466Z,0.76
2023-03-04T09:08:37.860Z,0.74
2023-03-04T09:11:05.700Z,0.71
2023-03-04T09:13:33.803Z,0.73
2023-03-04T09:16:01.483Z,0.75
2023-03-04T09:18:29.158Z,0.72
2023-03-04T09:20:56.551Z,0.75
2023-03-04T09:23:23.848Z,0.81
2023-03-04T09:25:51.323Z,0.81
2023-03-04T09:28:20.281Z,0.81
2023-03-04T09:30:49.396Z,0.85
2023-03-04T09:33:17.012Z,0.89
2023-03-04T09:35:44.885Z,0.91
2023-03-04T09:38:12.330Z,0.95
2023-03-04T09:40:43.447Z,0.91
2023-03-04T09:43:19.046Z,0.90
2023-03-04T09:45:55.068Z,0.89
2023-03-04T09:48:25.171Z,0.95
2023-03-04T09:51:26.422Z,0.97
2023-03-04T09:54:05.153Z,0.97
2023-03-04T09:56:37.110Z,0.96
2023-03-04T09:59:19.708Z,1.04
2023-03-04T10:01:52.327Z,1.15
2023-03-04T10:04:40.128Z,1.24
2023-03-04T10:07:22.654Z,1.23
2023-03-04T10:09:59.904Z,1.29
2023-03-04T10:12:31.852Z,1.29
2023-03-04T10:15:04.564Z,1.32
2023-03-04T10:17:43.062Z,1.32
2023-03-04T10:20:19.200Z,1.29
2023-03-04T10:22:58.521Z,1.28
2023-03-04T10:25:29.738Z,1.29
2023-03-04T10:28:13.052Z,1.37
2023-03-04T10:30:56.648Z,1.43
2023-03-04T10:33:30.605Z,1.46
2023-03-04T10:36:27.446Z,1.43
2023-03-04T10:38:59.498Z,1.38
2023-03-04T10:41:29.806Z,1.38
2023-03-04T10:44:05.322Z,1.37
2023-03-04T10:46:33.285Z,1.43
2023-03-04T10:49:00.945Z,1.47
2023-03-04T10:51:29.933Z,1.48
2023-03-04T10:54:23.687Z,1.46
2023-03-04T10:56:58.372Z,1.46
2023-03-04T10:59:40.294Z,1.50
2023-03-04T11:02:23.525Z,1.56
2023-03-04T11:05:05.057Z,1.57
2023-03-04T11:07:52.266Z,1.57
2023-03-04T11:10:40.563Z,1.62
2023-03-04T11:13:21.389Z,1.67
2023-03-04T11:15:48.870Z,1.73
2023-03-04T11:18:21.219Z,1.84
2023-03-04T11:20:50.186Z,2.06
2023-03-04T11:23:23.865Z,2.18
2023-03-04T11:25:59.037Z,2.17
2023-03-04T11:28:31.826Z,2.20
2023-03-04T11:31:03.423Z,2.19
2023-03-04T11:33:44.378Z,2.10
2023-03-04T11:36:28.542Z,2.05
2023-03-04T11:38:57.237Z,2.08
2023-03-04T11:41:38.466Z,2.07
2023-03-04T11:44:08.950Z,2.00
2023-03-04T11:47:04.519Z,2.01
2023-03-04T11:50:23.645Z,1.95
2023-03-04T11:53:12.784Z,2.02
2023-03-04T11:55:58.908Z,2.07
2023-03-04T11:58:52.188Z,2.01
2023-03-04T12:01:42.355Z,2.08
2023-03-04T12:04:45.276Z,2.23
2023-03-04T12:07:36.071Z,2.38
2023-03-04T12:10:44.716Z,2.53
2023-03-04T12:13:38.304Z,2.58
2023-03-04T12:16:21.456Z,2.58
2023-03-04T12:19:13.343Z,2.70
2023-03-04T12:22:14.131Z,2.73
2023-03-04T12:25:03.186Z,2.74
2023-03-04T12:27:58.030Z,2.76
2023-03-04T12:30:40.555Z,2.82
2023-03-04T12:33:21.356Z,2.81
2023-03-04T12:36:17.097Z,2.78
2023-03-04T12:39:00.924Z,2.84
2023-03-04T12:41:59.623Z,2.93
2023-03-04T12:44:43.763Z,2.94
2023-03-04T12:47:24.613Z,2.87
2023-03-04T12:50:04.572Z,2.84
2023-03-04T12:52:35.303Z,2.85
2023-03-04T12:55:04.759Z,2.90
2023-03-04T12:57:33.445Z,3.00
2023-03-04T13:00:35.146Z,3.04
2023-03-04T13:03:18.139Z,3.00
2023-03-04T13:06:27.688Z,3.07
2023-03-04T13:09:11.918Z,3.03
2023-03-04T13:11:54.948Z,3.05
2023-03-04T13:14:26.059Z,3.01
2023-03-04T13:16:55.112Z,2.99
2023-03-04T13:19:41.334Z,2.97
2023-03-04T13:22:28.693Z,3.01
2023-03-04T13:24:58.241Z,3.00
2023-03-04T13:28:04.894Z,3.00
2023-03-04T13:30:32.350Z,3.00
2023-03-04T13:33:09.053Z,3.10
2023-03-04T13:35:54.964Z,3.22
2023-03-04T13:38:24.590Z,3.33
2023-03-04T13:41:21.123Z,3.46
2023-03-04T13:43:54.513Z,3.57
2023-03-04T13:46:24.848Z,3.58
2023-03-04T13:48:52.627Z,3.60
2023-03-04T13:51:30.339Z,3.67
2023-03-04T13:54:02.944Z,3.71
2023-03-04T13:56:37.829Z,3.73
2023-03-04T13:59:08.676Z,3.75
2023-03-04T14:01:39.678Z,3.79
2023-03-04T14:04:22.108Z,3.88
2023-03-04T14:06:51.327Z,3.86
2023-03-04T14:09:26.377Z,3.86
2023-03-04T14:11:57.430Z,3.81
2023-03-04T14:14:28.850Z,3.76
2023-03-04T14:17:03.422Z,3.76
2023-03-04T14:19:43.221Z,3.77
2023-03-04T14:22:30.572Z,3.81
2023-03-04T14:25:01.079Z,3.75
2023-03-04T14:27:33.252Z,3.72
2023-03-04T14:30:03.910Z,3.70
2023-03-04T14:32:31.945Z,3.76
2023-03-04T14:35:19.777Z,3.85
2023-03-04T14:38:07.038Z,3.93
2023-03-04T14:40:45.316Z,3.93
2023-03-04T14:43:21.326Z,3.88
2023-03-04T14:45:52.614Z,3.87
2023-03-04T14:48:33.683Z,3.85
2023-03-04T14:51:03.909Z,3.86
2023-03-04T14:53:33.538Z,3.87
2023-03-04T14:56:07.174Z,3.89
2023-03-04T14:58:52.029Z,3.91
2023-03-04T15:01:28.992Z,3.82
2023-03-04T15:04:08.102Z,3.76
2023-03-04T15:06:39.988Z,3.72
2023-03-04T15:09:19.197Z,3.72
2023-03-04T15:11:53.090Z,3.76
2023-03-04T15:14:54.136Z,3.77
2023-03-04T15:17:39.785Z,3.74
2023-03-04T15:20:07.365Z,3.73
2023-03-04T15:22:54.722Z,3.70
2023-03-04T15:25:23.140Z,3.59
2023-03-04T15:27:51.472Z,3.50
2023-03-04T15:30:21.550Z,3.47
2023-03-04T15:32:49.964Z,3.43
2023-03-04T15:35:19.210Z,3.41
2023-03-04T15:37:49.584Z,3.38
2023-03-04T15:40:22.009Z,3.34
2023-03-04T15:42:49.793Z,3.29
2023-03-04T15:45:38.064Z,3.27
2023-03-04T15:48:09.382Z,3.22
2023-03-04T15:50:47.687Z,3.13
2023-03-04T15:53:22.778Z,3.14
2023-03-04T15:55:50.176Z,3.13
2023-03-04T15:58:18.076Z,3.10
2023-03-04T16:00:45.437Z,3.00
2023-03-04T16:03:17.807Z,2.94
2023-03-04T16:05:48.125Z,2.93
2023-03-04T16:08:18.625Z,2.92
2023-03-04T16:10:47.519Z,2.89
2023-03-04T16:13:17.850Z,2.88
2023-03-04T16:15:45.983Z,2.95
2023-03-04T16:18:14.699Z,2.87
2023-03-04T16:20:46.151Z,2.86
2023-03-04T16:23:17.635Z,2.81
2023-03-04T16:25:47.375Z,2.78
2023-03-04T16:28:15.026Z,2.79
2023-03-04T16:30:42.730Z,2.76
2023-03-04T16:33:11.541Z,2.75
2023-03-04T16:35:44.376Z,2.70
2023-03-04T16:38:23.210Z,2.67
2023-03-04T16:40:51.588Z,2.67
2023-03-04T16:43:19.390Z,2.63
2023-03-04T16:45:47.244Z,2.58
2023-03-04T16:48:16.369Z,2.56
2023-03-04T16:50:44.964Z,2.58
2023-03-04T16:53:38.885Z,2.59
2023-03-04T16:56:11.957Z,2.55
2023-03-04T16:58:39.366Z,2.57
2023-03-04T17:01:07.234Z,2.55
2023-03-04T17:03:34.706Z,2.52
2023-03-04T17:06:02.215Z,2.48
2023-03-04T17:08:38.142Z,2.44
2023-03-04T17:11:06.077Z,2.42
2023-03-04T17:13:33.383Z,2.38
2023-03-04T17:16:03.100Z,2.35
2023-03-04T17:18:30.861Z,2.35
2023-03-04T17:21:07.053Z,2.32
2023-03-04T17:23:37.823Z,2.27
2023-03-04T17:26:06.386Z,2.31
2023-03-04T17:28:33.903Z,2.28
2023-03-04T17:31:02.008Z,2.21
2023-03-04T17:33:29.421Z,2.18
2023-03-04T17:35:58.436Z,2.09
2023-03-04T17:38:25.892Z,2.07
2023-03-04T17:40:53.347Z,2.05
2023-03-04T17:43:20.819Z,2.00
2023-03-04T17:45:48.766Z,1.96
2023-03-04T17:48:16.374Z,1.98
2023-03-04T17:50:53.381Z,1.94
2023-03-04T17:53:24.309Z,1.94
2023-03-04T17:56:00.716Z,1.95
2023-03-04T17:58:30.886Z,1.93
2023-03-04T18:01:02.841Z,1.92
2023-03-04T18:03:33.118Z,1.91
2023-03-04T18:06:00.678Z,1.89
2023-03-04T18:08:28.115Z,1.88
2023-03-04T18:10:55.668Z,1.87
2023-03-04T18:13:23.163Z,1.92
2023-03-04T18:15:55.696Z,1.91
2023-03-04T18:18:23.354Z,1.86
2023-03-04T18:20:57.480Z,1.87
2023-03-04T18:23:25.447Z,1.84
2023-03-04T18:25:53.435Z,1.83
2023-03-04T18:28:21.164Z,1.84
2023-03-04T18:30:51.524Z,1.80
2023-03-04T18:33:19.847Z,1.82
2023-03-04T18:35:47.377Z,1.81
2023-03-04T18:38:14.848Z,1.79
2023-03-04T18:40:45.241Z,1.73
2023-03-04T18:43:13.215Z,1.72
2023-03-04T18:45:40.609Z,1.68
2023-03-04T18:48:08.362Z,1.66
2023-03-04T18:50:35.794Z,1.68
2023-03-04T18:53:03.430Z,1.69
2023-03-04T18:55:31.976Z,1.68
2023-03-04T18:58:01.509Z,1.67
2023-03-04T19:00:29.577Z,1.64
2023-03-04T19:03:06.719Z,1.61
2023-03-04T19:05:34.677Z,1.58
2023-03-04T19:08:02.374Z,1.59
2023-03-04T19:10:30.239Z,1.57
2023-03-04T19:12:59.647Z,1.57
2023-03-04T19:15:27.392Z,1.57
2023-03-04T19:17:54.905Z,1.55
2023-03-04T19:20:22.534Z,1.53
2023-03-04T19:22:50.998Z,1.54
2023-03-04T19:25:18.455Z,1.51
2023-03-04T19:27:45.958Z,1.48
2023-03-04T19:30:14.252Z,1.51
2023-03-04T19:32:41.701Z,1.47
2023-03-04T19:35:41.228Z,1.44
2023-03-04T19:38:10.825Z,1.41
2023-03-04T19:40:40.590Z,1.39
2023-03-04T19:43:08.738Z,1.38
2023-03-04T19:45:36.408Z,1.36
2023-03-04T19:48:04.156Z,1.36
2023-03-04T19:50:32.708Z,1.37
2023-03-04T19:53:00.305Z,1.35
2023-03-04T19:55:29.004Z,1.32
2023-03-04T19:57:56.667Z,1.31
2023-03-04T20:00:24.420Z,1.34
2023-03-04T20:02:52.197Z,1.30
2023-03-04T20:05:19.653Z,1.30
2023-03-04T20:07:47.223Z,1.27
2023-03-04T20:10:16.084Z,1.28
2023-03-04T20:12:43.714Z,1.29
2023-03-04T20:15:11.725Z,1.24
2023-03-04T20:17:39.679Z,1.22
2023-03-04T20:20:10.728Z,1.19
2023-03-04T20:22:38.704Z,1.13
2023-03-04T20:25:07.174Z,1.13
2023-03-04T20:27:34.796Z,1.12
2023-03-04T20:30:03.950Z,1.11
2023-03-04T20:32:32.239Z,1.08
2023-03-04T20:34:59.900Z,1.05
2023-03-04T20:37:27.434Z,1.05
2023-03-04T20:39:57.178Z,1.01
2023-03-04T20:42:25.070Z,0.99
2023-03-04T20:44:53.289Z,0.98
2023-03-04T20:47:20.940Z,0.98
2023-03-04T20:49:49.523Z,0.97
2023-03-04T20:52:18.911Z,0.96
2023-03-04T20:54:46.601Z,0.93
2023-03-04T20:57:14.509Z,0.94
2023-03-04T20:59:41.873Z,0.92
2023-03-04T21:02:13.672Z,0.92
2023-03-04T21:04:41.262Z,0.91
2023-03-04T21:07:08.936Z,0.91
2023-03-04T21:09:36.431Z,0.91
2023-03-04T21:12:04.070Z,0.93
2023-03-04T21:14:32.607Z,0.89
2023-03-04T21:17:02.623Z,0.88
2023-03-04T21:19:37.123Z,0.88
2023-03-04T21:22:05.165Z,0.87
2023-03-04T21:24:36.207Z,0.84
2023-03-04T21:27:05.003Z,0.84
2023-03-04T21:29:33.071Z,0.86
2023-03-04T21:32:23.758Z,0.88
2023-03-04T21:34:53.388Z,0.88
2023-03-04T21:37:24.580Z,0.89
2023-03-04T21:39:52.197Z,0.88
2023-03-04T21:42:19.646Z,0.87
2023-03-04T21:44:50.021Z,0.86
2023-03-04T21:47:19.484Z,0.85
2023-03-04T21:49:47.105Z,0.87
2023-03-04T21:52:14.680Z,0.93
2023-03-04T21:54:42.338Z,0.91
2023-03-04T21:57:10.337Z,0.90
2023-03-04T21:59:39.185Z,0.91
2023-03-04T22:02:25.232Z,0.91
2023-03-04T22:04:53.897Z,0.89
2023-03-04T22:07:21.592Z,0.89
2023-03-04T22:09:49.040Z,0.91
2023-03-04T22:12:18.418Z,0.90
2023-03-04T22:14:46.932Z,0.87
2023-03-04T22:17:14.401Z,0.86
2023-03-04T22:19:42.062Z,0.86
2023-03-04T22:22:09.502Z,0.87
2023-03-04T22:24:40.101Z,0.86
2023-03-04T22:27:07.543Z,0.84
2023-03-04T22:29:35.009Z,0.85
2023-03-04T22:32:02.596Z,0.84
2023-03-04T22:34:30.857Z,0.85
2023-03-04T22:36:58.207Z,0.84
2023-03-04T22:39:25.589Z,0.86
2023-03-04T22:41:52.959Z,0.83
2023-03-04T22:44:20.454Z,0.80
2023-03-04T22:46:47.951Z,0.81
2023-03-04T22:49:15.342Z,0.83
2023-03-04T22:51:44.322Z,0.82
2023-03-04T22:54:17.452Z,0.82
2023-03-04T22:56:45.431Z,0.76
2023-03-04T22:59:13.602Z,0.73
2023-03-04T23:01:41.462Z,0.72
2023-03-04T23:04:08.722Z,0.72
2023-03-04T23:06:37.665Z,0.71
2023-03-04T23:09:06.256Z,0.70
2023-03-04T23:11:39.874Z,0.69
2023-03-04T23:14:08.974Z,0.68
2023-03-04T23:16:41.089Z,0.69
2023-03-04T23:19:11.033Z,0.66
2023-03-04T23:21:38.777Z,0.63
2023-03-04T23:24:08.250Z,0.64
2023-03-04T23:26:38.956Z,0.64
2023-03-04T23:29:09.343Z,0.60
2023-03-04T23:31:37.013Z,0.61
2023-03-04T23:34:04.770Z,0.56
2023-03-04T23:36:34.693Z,0.54
2023-03-04T23:39:03.574Z,0.56
2023-03-04T23:41:32.114Z,0.56
2023-03-04T23:44:00.621Z,0.52
2023-03-04T23:46:28.427Z,0.51
2023-03-04T23:48:55.831Z,0.54
2023-03-04T23:51:25.482Z,0.53
2023-03-04T23:53:52.994Z,0.47
2023-03-04T23:56:27.070Z,0.51
2023-03-04T23:58:55.607Z,0.49
